Time;durP1;ratioP1;P1;durP2;ratioP2;P2;SDS_P1;SDS_P2;PMS_P1;PMS_P2;Temp;Humidity;BMP_temperature;BMP_pressure;BME280_temperature;BME280_humidity;BME280_pressure;Samples;Min_cycle;Max_cycle;Signal;HPM_P1;HPM_P2
2021/07/18 00:00:03;;;;;;;26.83;18.27;;;;;;;;;;5028067;28;20042;-73
2021/07/18 00:02:32;;;;;;;34.10;19.20;;;;;;;;;;5029568;28;20049;-72
2021/07/18 00:05:02;;;;;;;30.00;19.48;;;;;;;;;;5028135;28;20089;-78
2021/07/18 00:07:32;;;;;;;30.95;19.50;;;;;;;;;;5027638;28;20049;-70
2021/07/18 00:10:01;;;;;;;26.10;18.15;;;;;;;;;;5026888;28;20059;-75
2021/07/18 00:12:29;;;;;;;31.27;19.52;;;;;;;;;;5028191;28;20077;-75
2021/07/18 00:14:57;;;;;;;31.63;19.30;;;;;;;;;;5028842;28;20136;-72
2021/07/18 00:17:25;;;;;;;29.90;18.85;;;;;;;;;;5029650;28;20396;-71
2021/07/18 00:19:54;;;;;;;25.58;17.95;;;;;;;;;;5028721;28;20497;-70
2021/07/18 00:22:23;;;;;;;35.00;20.63;;;;;;;;;;5029863;28;20132;-74
2021/07/18 00:24:52;;;;;;;30.50;18.48;;;;;;;;;;5029348;28;20136;-71
2021/07/18 00:27:20;;;;;;;28.30;18.83;;;;;;;;;;5028652;28;20053;-72
2021/07/18 00:29:48;;;;;;;31.58;19.05;;;;;;;;;;5029699;28;20073;-71
2021/07/18 00:32:16;;;;;;;36.13;20.25;;;;;;;;;;5029138;28;20055;-75
2021/07/18 00:34:45;;;;;;;30.20;19.35;;;;;;;;;;5028946;28;20049;-70
2021/07/18 00:37:13;;;;;;;28.50;18.60;;;;;;;;;;5029304;28;20048;-70
2021/07/18 00:39:43;;;;;;;31.88;19.55;;;;;;;;;;5029373;28;20124;-71
2021/07/18 00:42:11;;;;;;;29.95;18.80;;;;;;;;;;5027112;28;20560;-73
2021/07/18 00:44:39;;;;;;;28.13;17.65;;;;;;;;;;5031078;28;20049;-72
2021/07/18 00:47:08;;;;;;;29.63;19.45;;;;;;;;;;5031297;28;20045;-72
2021/07/18 00:49:37;;;;;;;33.33;19.27;;;;;;;;;;5033316;28;20132;-70
2021/07/18 00:52:05;;;;;;;26.52;18.10;;;;;;;;;;5032866;28;20056;-71
2021/07/18 00:54:34;;;;;;;25.77;18.88;;;;;;;;;;5029019;28;20145;-72
2021/07/18 00:57:04;;;;;;;31.83;19.48;;;;;;;;;;5032312;28;20136;-73
2021/07/18 00:59:32;;;;;;;28.25;18.40;;;;;;;;;;5032782;28;20048;-74
2021/07/18 01:02:01;;;;;;;28.70;18.98;;;;;;;;;;5032902;28;20049;-75
2021/07/18 01:04:30;;;;;;;28.70;17.92;;;;;;;;;;5028597;28;20054;-73
2021/07/18 01:06:58;;;;;;;31.30;18.38;;;;;;;;;;5033054;28;20081;-74
2021/07/18 01:09:27;;;;;;;31.83;18.48;;;;;;;;;;5032731;28;20048;-74
2021/07/18 01:11:55;;;;;;;27.02;17.80;;;;;;;;;;5032646;28;20133;-71
2021/07/18 01:14:25;;;;;;;28.00;17.58;;;;;;;;;;5031251;28;20420;-74
2021/07/18 01:16:53;;;;;;;33.25;17.95;;;;;;;;;;5018425;28;20156;-76
2021/07/18 01:19:22;;;;;;;26.83;17.30;;;;;;;;;;5032689;28;20510;-74
2021/07/18 01:21:58;;;;;;;28.33;17.65;;;;;;;;;;5032715;28;20045;-72
2021/07/18 01:24:26;;;;;;;25.45;16.23;;;;;;;;;;5031471;28;20049;-70
2021/07/18 01:26:55;;;;;;;27.08;15.90;;;;;;;;;;5033978;28;20088;-72
2021/07/18 01:29:24;;;;;;;24.88;15.75;;;;;;;;;;5032668;28;20049;-70
2021/07/18 01:31:52;;;;;;;29.00;15.95;;;;;;;;;;5032783;28;20051;-81
2021/07/18 01:34:21;;;;;;;22.55;14.90;;;;;;;;;;5030797;28;20483;-76
2021/07/18 01:36:49;;;;;;;21.50;14.07;;;;;;;;;;5032968;28;20072;-75
2021/07/18 01:39:19;;;;;;;24.17;14.73;;;;;;;;;;5032940;28;20128;-72
2021/07/18 01:41:48;;;;;;;27.38;15.52;;;;;;;;;;5017549;28;20140;-69
2021/07/18 01:44:16;;;;;;;22.27;15.10;;;;;;;;;;5018848;28;20045;-71
2021/07/18 01:46:45;;;;;;;23.52;14.32;;;;;;;;;;5032201;28;20049;-70
2021/07/18 01:49:13;;;;;;;23.65;13.82;;;;;;;;;;5032470;28;20084;-70
2021/07/18 01:51:42;;;;;;;22.65;14.85;;;;;;;;;;5031379;28;20044;-72
2021/07/18 01:54:11;;;;;;;19.45;12.95;;;;;;;;;;5030531;28;20064;-71
2021/07/18 01:56:42;;;;;;;17.30;13.25;;;;;;;;;;5031098;28;20140;-71
2021/07/18 01:59:10;;;;;;;19.17;13.13;;;;;;;;;;5031660;28;20045;-71
2021/07/18 02:01:39;;;;;;;22.70;13.73;;;;;;;;;;5031634;28;20053;-72
2021/07/18 02:04:07;;;;;;;22.25;14.23;;;;;;;;;;5031136;28;20056;-75
2021/07/18 02:06:35;;;;;;;24.98;13.88;;;;;;;;;;5030471;28;20133;-69
2021/07/18 02:09:05;;;;;;;18.85;12.38;;;;;;;;;;5031212;28;20133;-70
2021/07/18 02:11:34;;;;;;;18.77;13.48;;;;;;;;;;5028342;28;20145;-70
2021/07/18 02:14:05;;;;;;;25.05;12.95;;;;;;;;;;5029548;28;20414;-73
2021/07/18 02:16:33;;;;;;;16.80;12.77;;;;;;;;;;5024459;28;20050;-76
2021/07/18 02:19:06;;;;;;;19.23;12.35;;;;;;;;;;5018407;28;20170;-73
2021/07/18 02:21:35;;;;;;;15.68;11.63;;;;;;;;;;5027862;28;20100;-70
2021/07/18 02:24:03;;;;;;;19.35;11.88;;;;;;;;;;5020256;28;20128;-74
2021/07/18 02:26:32;;;;;;;16.40;11.70;;;;;;;;;;5029455;28;20046;-73
2021/07/18 02:29:01;;;;;;;23.00;11.80;;;;;;;;;;5031111;28;20152;-70
2021/07/18 02:31:31;;;;;;;21.08;12.02;;;;;;;;;;5030711;28;20398;-75
2021/07/18 02:33:59;;;;;;;17.67;11.00;;;;;;;;;;5031590;28;20144;-75
2021/07/18 02:36:28;;;;;;;26.48;11.25;;;;;;;;;;5031671;28;20133;-71
2021/07/18 02:38:56;;;;;;;20.30;10.95;;;;;;;;;;5030344;28;20469;-73
2021/07/18 02:41:24;;;;;;;20.77;10.77;;;;;;;;;;5031405;28;20396;-72
2021/07/18 02:43:52;;;;;;;20.65;11.10;;;;;;;;;;5015488;28;20045;-69
2021/07/18 02:46:21;;;;;;;17.92;10.55;;;;;;;;;;5031007;28;20065;-73
2021/07/18 02:48:51;;;;;;;20.73;10.30;;;;;;;;;;5031371;28;20246;-77
2021/07/18 02:51:19;;;;;;;14.48;9.75;;;;;;;;;;5027996;28;20045;-70
2021/07/18 02:53:50;;;;;;;15.48;9.98;;;;;;;;;;5031200;28;20056;-71
2021/07/18 02:56:18;;;;;;;18.05;9.70;;;;;;;;;;5030745;28;20073;-71
2021/07/18 02:58:47;;;;;;;13.75;9.50;;;;;;;;;;5030926;28;20080;-71
2021/07/18 03:01:15;;;;;;;15.57;8.98;;;;;;;;;;5031037;28;20049;-70
2021/07/18 03:03:44;;;;;;;18.42;9.68;;;;;;;;;;5031722;28;20057;-70
2021/07/18 03:06:13;;;;;;;18.73;9.90;;;;;;;;;;5028836;28;20407;-71
2021/07/18 03:08:41;;;;;;;22.45;8.90;;;;;;;;;;5030620;28;20076;-71
2021/07/18 03:11:10;;;;;;;16.40;9.30;;;;;;;;;;5030430;28;20061;-73
2021/07/18 03:13:38;;;;;;;18.65;8.30;;;;;;;;;;5030622;28;20473;-72
2021/07/18 03:16:06;;;;;;;15.20;8.68;;;;;;;;;;5030905;28;20053;-70
2021/07/18 03:18:35;;;;;;;19.05;8.50;;;;;;;;;;5030776;28;20045;-71
2021/07/18 03:21:03;;;;;;;15.05;8.85;;;;;;;;;;5030787;28;20423;-70
2021/07/18 03:23:32;;;;;;;13.13;8.20;;;;;;;;;;5030059;28;20132;-71
2021/07/18 03:26:01;;;;;;;19.60;8.88;;;;;;;;;;5026197;28;20052;-72
2021/07/18 03:28:29;;;;;;;16.15;7.25;;;;;;;;;;5030661;28;20049;-76
2021/07/18 03:30:57;;;;;;;13.10;8.18;;;;;;;;;;5029454;28;20469;-71
2021/07/18 03:33:26;;;;;;;12.90;7.32;;;;;;;;;;5029847;28;20049;-70
2021/07/18 03:35:55;;;;;;;13.63;8.05;;;;;;;;;;5030881;28;20059;-73
2021/07/18 03:38:23;;;;;;;15.02;7.88;;;;;;;;;;5031219;28;20407;-72
2021/07/18 03:40:52;;;;;;;13.18;7.47;;;;;;;;;;5031064;28;20038;-70
2021/07/18 03:43:21;;;;;;;11.48;7.32;;;;;;;;;;5029831;28;20047;-72
2021/07/18 03:45:49;;;;;;;14.25;7.53;;;;;;;;;;5024284;28;20310;-75
2021/07/18 03:48:17;;;;;;;14.57;7.60;;;;;;;;;;5030011;28;20053;-71
2021/07/18 03:50:47;;;;;;;15.15;7.75;;;;;;;;;;5029670;28;20042;-70
2021/07/18 03:53:15;;;;;;;11.63;7.28;;;;;;;;;;5029667;28;20052;-72
2021/07/18 03:55:43;;;;;;;16.50;7.45;;;;;;;;;;5029647;28;20131;-71
2021/07/18 03:58:13;;;;;;;14.10;7.15;;;;;;;;;;5030355;28;20045;-71
2021/07/18 04:00:41;;;;;;;13.15;6.82;;;;;;;;;;5030158;28;20045;-70
2021/07/18 04:03:09;;;;;;;10.85;6.32;;;;;;;;;;5029536;28;20095;-71
2021/07/18 04:05:37;;;;;;;12.63;6.72;;;;;;;;;;5028558;28;20088;-73
2021/07/18 04:08:06;;;;;;;14.18;6.30;;;;;;;;;;5029362;28;20408;-70
2021/07/18 04:10:34;;;;;;;13.88;6.28;;;;;;;;;;5030182;28;20105;-70
2021/07/18 04:13:03;;;;;;;14.68;6.57;;;;;;;;;;5025243;28;20046;-70
2021/07/18 04:15:32;;;;;;;12.30;6.68;;;;;;;;;;5028425;28;20064;-72
2021/07/18 04:18:07;;;;;;;14.30;6.97;;;;;;;;;;5031671;28;20092;-73
2021/07/18 04:20:35;;;;;;;15.13;6.90;;;;;;;;;;5033630;28;20576;-71
2021/07/18 04:23:04;;;;;;;11.43;6.28;;;;;;;;;;5034121;28;20140;-76
2021/07/18 04:25:32;;;;;;;10.85;6.25;;;;;;;;;;5032647;28;20096;-71
2021/07/18 04:28:00;;;;;;;11.65;6.20;;;;;;;;;;5032833;28;20129;-75
2021/07/18 04:30:29;;;;;;;11.68;6.25;;;;;;;;;;5034051;28;20410;-71
2021/07/18 04:32:58;;;;;;;12.75;6.78;;;;;;;;;;5034092;28;20128;-70
2021/07/18 04:35:27;;;;;;;10.75;6.30;;;;;;;;;;5032838;28;20049;-70
2021/07/18 04:37:55;;;;;;;10.25;6.30;;;;;;;;;;5032591;28;20076;-71
2021/07/18 04:40:23;;;;;;;13.15;5.95;;;;;;;;;;5033907;28;20057;-71
2021/07/18 04:42:51;;;;;;;11.68;6.00;;;;;;;;;;5031199;28;20133;-71
2021/07/18 04:45:20;;;;;;;10.30;6.25;;;;;;;;;;5025932;28;20576;-76
2021/07/18 04:47:49;;;;;;;9.55;5.47;;;;;;;;;;5032815;28;20128;-70
2021/07/18 04:50:20;;;;;;;11.10;5.82;;;;;;;;;;5033492;28;20037;-71
2021/07/18 04:52:48;;;;;;;13.45;5.90;;;;;;;;;;5033688;28;20084;-73
2021/07/18 04:55:17;;;;;;;9.60;4.70;;;;;;;;;;5031983;28;20129;-72
2021/07/18 04:57:45;;;;;;;17.42;5.78;;;;;;;;;;5031862;28;20543;-74
2021/07/18 05:00:15;;;;;;;11.50;5.93;;;;;;;;;;5027887;28;20497;-73
2021/07/18 05:02:43;;;;;;;11.07;5.53;;;;;;;;;;5024595;28;20133;-71
2021/07/18 05:05:13;;;;;;;14.45;5.65;;;;;;;;;;5018434;28;20069;-70
2021/07/18 05:07:49;;;;;;;14.30;5.60;;;;;;;;;;5030460;28;20132;-74
2021/07/18 05:10:18;;;;;;;10.27;5.18;;;;;;;;;;5032038;28;20569;-73
2021/07/18 05:12:46;;;;;;;9.98;4.97;;;;;;;;;;5033025;28;20053;-72
2021/07/18 05:15:15;;;;;;;8.60;4.60;;;;;;;;;;5032090;28;20056;-71
2021/07/18 05:17:44;;;;;;;17.60;5.47;;;;;;;;;;5031900;28;20050;-72
2021/07/18 05:20:13;;;;;;;11.23;4.88;;;;;;;;;;5030970;28;20512;-72
2021/07/18 05:22:42;;;;;;;10.02;5.15;;;;;;;;;;5028549;28;20490;-74
2021/07/18 05:25:12;;;;;;;10.63;4.90;;;;;;;;;;5019224;28;20052;-71
2021/07/18 05:27:41;;;;;;;9.00;4.88;;;;;;;;;;5032446;28;20121;-71
2021/07/18 05:30:10;;;;;;;10.77;4.68;;;;;;;;;;5031341;28;20124;-71
2021/07/18 05:32:38;;;;;;;7.70;4.55;;;;;;;;;;5032157;28;20080;-72
2021/07/18 05:35:08;;;;;;;8.60;4.28;;;;;;;;;;5031959;28;20045;-71
2021/07/18 05:37:36;;;;;;;11.32;4.72;;;;;;;;;;5032653;28;20049;-71
2021/07/18 05:40:05;;;;;;;9.75;4.82;;;;;;;;;;5031929;28;20707;-71
2021/07/18 05:42:35;;;;;;;12.20;4.82;;;;;;;;;;5032109;28;20049;-74
2021/07/18 05:45:03;;;;;;;7.80;4.47;;;;;;;;;;5027499;28;20132;-71
2021/07/18 05:47:33;;;;;;;9.77;4.38;;;;;;;;;;5032483;28;20085;-71
2021/07/18 05:50:02;;;;;;;11.20;5.00;;;;;;;;;;5031730;28;20060;-71
2021/07/18 05:52:31;;;;;;;9.90;4.50;;;;;;;;;;5030544;28;20580;-74
2021/07/18 05:55:00;;;;;;;13.23;5.30;;;;;;;;;;5026305;28;20136;-78
2021/07/18 05:57:28;;;;;;;10.80;4.90;;;;;;;;;;5032430;28;20060;-72
2021/07/18 05:59:58;;;;;;;8.63;4.63;;;;;;;;;;5032332;28;20049;-70
2021/07/18 06:02:26;;;;;;;9.95;4.60;;;;;;;;;;5030809;28;20378;-70
2021/07/18 06:04:54;;;;;;;7.85;4.65;;;;;;;;;;5031619;28;20057;-72
2021/07/18 06:07:23;;;;;;;11.07;4.60;;;;;;;;;;5032352;28;20100;-72
2021/07/18 06:09:51;;;;;;;9.38;5.18;;;;;;;;;;5031449;28;20059;-71
2021/07/18 06:12:20;;;;;;;8.38;4.78;;;;;;;;;;5013169;28;20056;-73
2021/07/18 06:14:48;;;;;;;7.70;4.88;;;;;;;;;;5026930;28;20089;-78
2021/07/18 06:17:19;;;;;;;9.70;5.97;;;;;;;;;;5029110;28;20129;-72
2021/07/18 06:19:47;;;;;;;11.18;5.15;;;;;;;;;;5028839;28;20116;-70
2021/07/18 06:22:15;;;;;;;12.32;5.10;;;;;;;;;;5029903;28;20057;-72
2021/07/18 06:24:44;;;;;;;11.32;5.13;;;;;;;;;;5027376;28;20149;-74
2021/07/18 06:27:12;;;;;;;15.40;5.32;;;;;;;;;;5029487;28;20052;-78
2021/07/18 06:29:41;;;;;;;11.57;5.45;;;;;;;;;;5029573;28;20037;-73
2021/07/18 06:32:09;;;;;;;10.95;4.75;;;;;;;;;;5029768;28;20557;-76
2021/07/18 06:34:39;;;;;;;9.20;5.35;;;;;;;;;;5028741;28;20467;-75
2021/07/18 06:37:07;;;;;;;15.00;5.95;;;;;;;;;;5029227;28;20477;-71
2021/07/18 06:39:35;;;;;;;15.23;5.50;;;;;;;;;;5027554;28;20229;-72
2021/07/18 06:42:04;;;;;;;10.80;5.10;;;;;;;;;;5028793;28;20155;-84
2021/07/18 06:44:32;;;;;;;10.00;4.95;;;;;;;;;;5020487;28;20136;-75
2021/07/18 06:47:01;;;;;;;8.77;5.03;;;;;;;;;;5028813;28;20050;-78
2021/07/18 06:49:29;;;;;;;10.15;5.03;;;;;;;;;;5030316;28;20077;-73
2021/07/18 06:51:59;;;;;;;11.68;5.13;;;;;;;;;;5031588;28;20505;-72
2021/07/18 06:54:28;;;;;;;12.38;6.05;;;;;;;;;;5027759;28;20455;-76
2021/07/18 06:56:56;;;;;;;10.95;4.95;;;;;;;;;;5030926;28;20084;-71
2021/07/18 06:59:24;;;;;;;18.48;5.85;;;;;;;;;;5030213;28;20539;-78
2021/07/18 07:01:53;;;;;;;12.07;5.28;;;;;;;;;;5026480;28;20437;-71
2021/07/18 07:04:21;;;;;;;12.25;5.10;;;;;;;;;;5030479;28;20053;-71
2021/07/18 07:06:49;;;;;;;11.02;5.10;;;;;;;;;;5030240;28;20045;-73
2021/07/18 07:09:19;;;;;;;13.32;6.05;;;;;;;;;;5030694;28;20100;-75
2021/07/18 07:11:47;;;;;;;13.50;5.38;;;;;;;;;;5030924;28;20470;-72
2021/07/18 07:14:16;;;;;;;10.77;5.57;;;;;;;;;;5028978;28;20069;-86
2021/07/18 07:16:44;;;;;;;12.25;5.40;;;;;;;;;;5028901;28;20408;-71
2021/07/18 07:19:12;;;;;;;10.65;5.47;;;;;;;;;;5029493;28;20456;-71
2021/07/18 07:21:41;;;;;;;9.40;4.53;;;;;;;;;;5030404;28;20055;-72
2021/07/18 07:24:09;;;;;;;12.23;5.57;;;;;;;;;;5030144;28;20157;-76
2021/07/18 07:26:39;;;;;;;13.68;6.00;;;;;;;;;;5030666;28;20116;-73
2021/07/18 07:29:07;;;;;;;11.93;5.40;;;;;;;;;;5023306;28;20136;-73
2021/07/18 07:31:35;;;;;;;12.52;5.60;;;;;;;;;;5029996;28;20401;-70
2021/07/18 07:34:04;;;;;;;13.23;5.95;;;;;;;;;;5029710;28;20064;-71
2021/07/18 07:36:33;;;;;;;14.40;5.95;;;;;;;;;;5029116;28;20088;-70
2021/07/18 07:39:01;;;;;;;10.20;5.10;;;;;;;;;;5027168;28;20100;-73
2021/07/18 07:41:30;;;;;;;13.00;5.63;;;;;;;;;;5030632;28;20049;-74
2021/07/18 07:44:00;;;;;;;12.38;4.85;;;;;;;;;;5030172;28;20081;-71
2021/07/18 07:46:29;;;;;;;12.20;5.05;;;;;;;;;;5023441;28;20049;-70
2021/07/18 07:48:57;;;;;;;10.43;5.40;;;;;;;;;;5029332;28;20064;-73
2021/07/18 07:51:25;;;;;;;9.90;5.38;;;;;;;;;;5030153;28;20045;-70
2021/07/18 07:53:54;;;;;;;10.85;5.50;;;;;;;;;;5030938;28;20136;-69
2021/07/18 07:56:22;;;;;;;9.55;5.63;;;;;;;;;;5029722;28;20069;-70
2021/07/18 07:58:50;;;;;;;10.50;5.43;;;;;;;;;;5029669;28;20100;-71
2021/07/18 08:01:20;;;;;;;11.00;5.65;;;;;;;;;;5013897;28;20096;-74
2021/07/18 08:03:49;;;;;;;11.45;5.70;;;;;;;;;;5011270;28;20140;-77
2021/07/18 08:06:17;;;;;;;11.02;6.18;;;;;;;;;;5024945;28;20088;-74
2021/07/18 08:08:45;;;;;;;13.10;5.43;;;;;;;;;;5030007;28;20124;-70
2021/07/18 08:11:14;;;;;;;19.95;6.82;;;;;;;;;;5029428;28;20060;-70
2021/07/18 08:13:43;;;;;;;14.65;5.80;;;;;;;;;;5030364;28;20093;-69
2021/07/18 08:16:11;;;;;;;16.40;6.20;;;;;;;;;;5029408;28;20050;-73
2021/07/18 08:18:41;;;;;;;15.20;7.22;;;;;;;;;;5026385;28;20053;-73
2021/07/18 08:21:09;;;;;;;14.35;7.10;;;;;;;;;;5027430;28;20132;-75
2021/07/18 08:23:38;;;;;;;10.70;6.55;;;;;;;;;;5026423;28;20192;-72
2021/07/18 08:26:06;;;;;;;15.35;7.28;;;;;;;;;;5027814;28;20367;-75
2021/07/18 08:28:38;;;;;;;14.70;6.72;;;;;;;;;;5026837;28;20053;-72
2021/07/18 08:31:06;;;;;;;12.95;6.93;;;;;;;;;;5025934;28;20834;-75
2021/07/18 08:33:35;;;;;;;11.75;6.95;;;;;;;;;;5026683;28;20125;-77
2021/07/18 08:36:05;;;;;;;14.52;6.80;;;;;;;;;;5024173;28;20067;-72
2021/07/18 08:38:34;;;;;;;13.98;6.43;;;;;;;;;;5026102;28;20140;-75
2021/07/18 08:41:03;;;;;;;16.63;6.25;;;;;;;;;;5022324;28;20037;-73
2021/07/18 08:43:46;;;;;;;13.85;6.60;;;;;;;;;;5017003;28;20046;-70
2021/07/18 08:46:18;;;;;;;13.57;7.00;;;;;;;;;;5029721;28;20555;-68
2021/07/18 08:48:46;;;;;;;16.42;6.90;;;;;;;;;;5029306;28;20124;-70
2021/07/18 08:51:17;;;;;;;12.15;7.68;;;;;;;;;;5030215;28;20045;-68
2021/07/18 08:53:46;;;;;;;11.73;7.25;;;;;;;;;;5029645;28;20111;-69
2021/07/18 08:56:16;;;;;;;13.07;6.90;;;;;;;;;;5028082;28;20068;-69
2021/07/18 08:58:44;;;;;;;15.40;8.30;;;;;;;;;;5010450;28;20472;-69
2021/07/18 09:01:13;;;;;;;16.23;8.18;;;;;;;;;;5015326;28;20136;-68
2021/07/18 09:03:42;;;;;;;18.27;8.07;;;;;;;;;;5028415;28;20080;-69
2021/07/18 09:06:11;;;;;;;14.88;8.82;;;;;;;;;;5033399;28;20124;-69
2021/07/18 09:08:45;;;;;;;16.52;8.52;;;;;;;;;;5033960;28;20084;-69
2021/07/18 09:11:17;;;;;;;16.80;8.38;;;;;;;;;;5033672;28;20045;-69
2021/07/18 09:13:55;;;;;;;14.55;7.68;;;;;;;;;;5032675;28;20038;-69
2021/07/18 09:16:27;;;;;;;14.23;8.00;;;;;;;;;;5032845;28;20077;-69
2021/07/18 09:19:14;;;;;;;16.30;8.25;;;;;;;;;;5033375;28;20053;-69
2021/07/18 09:21:49;;;;;;;11.80;7.72;;;;;;;;;;5033469;28;20568;-70
2021/07/18 09:24:17;;;;;;;;;;;;;;;;;;5032616;28;20128;-68
2021/07/18 09:27:03;;;;;;;16.80;9.05;;;;;;;;;;5033478;28;19964;-69
2021/07/18 09:29:32;;;;;;;14.88;9.10;;;;;;;;;;5032513;28;20104;-69
2021/07/18 09:32:07;;;;;;;16.73;9.63;;;;;;;;;;5033545;28;20129;-69
2021/07/18 09:34:37;;;;;;;18.98;10.32;;;;;;;;;;5032235;28;20128;-69
2021/07/18 09:37:11;;;;;;;18.90;12.95;;;;;;;;;;5032894;28;20132;-69
2021/07/18 09:39:40;;;;;;;22.08;13.57;;;;;;;;;;5033387;28;20092;-68
2021/07/18 09:42:10;;;;;;;22.80;14.05;;;;;;;;;;5032186;28;20141;-69
2021/07/18 09:44:42;;;;;;;24.15;14.23;;;;;;;;;;5032448;28;20084;-69
2021/07/18 09:47:11;;;;;;;24.98;14.30;;;;;;;;;;5032396;28;20108;-68
2021/07/18 09:49:39;;;;;;;21.50;14.30;;;;;;;;;;5032985;28;20128;-68
2021/07/18 09:52:19;;;;;;;23.85;14.65;;;;;;;;;;5032668;28;20059;-68
2021/07/18 09:54:49;;;;;;;21.85;12.93;;;;;;;;;;5031909;28;20037;-68
2021/07/18 09:57:32;;;;;;;24.73;14.55;;;;;;;;;;5031708;28;20049;-68
2021/07/18 10:00:02;;;;;;;21.92;14.02;;;;;;;;;;5030542;28;20148;-68
2021/07/18 10:02:31;;;;;;;23.42;14.27;;;;;;;;;;5022598;28;20081;-68
2021/07/18 10:05:01;;;;;;;24.30;14.68;;;;;;;;;;5031390;28;20570;-68
2021/07/18 10:07:32;;;;;;;25.17;13.55;;;;;;;;;;5032069;28;20401;-68
2021/07/18 10:10:00;;;;;;;19.70;13.48;;;;;;;;;;5032460;28;20127;-68
2021/07/18 10:12:29;;;;;;;19.50;14.00;;;;;;;;;;5032505;28;20053;-68
2021/07/18 10:14:59;;;;;;;20.30;13.40;;;;;;;;;;5030857;28;20398;-68
2021/07/18 10:17:30;;;;;;;20.60;13.20;;;;;;;;;;5027926;28;20042;-67
2021/07/18 10:19:58;;;;;;;22.00;12.65;;;;;;;;;;5029323;28;20061;-66
2021/07/18 10:22:27;;;;;;;16.83;11.80;;;;;;;;;;5030578;28;20507;-66
2021/07/18 10:24:56;;;;;;;23.98;12.43;;;;;;;;;;5028710;28;20103;-67
2021/07/18 10:27:24;;;;;;;21.00;12.85;;;;;;;;;;5030028;28;20055;-67
2021/07/18 10:29:55;;;;;;;20.00;13.20;;;;;;;;;;5029869;28;20041;-67
2021/07/18 10:32:25;;;;;;;21.70;12.45;;;;;;;;;;5031190;28;20460;-67
2021/07/18 10:34:56;;;;;;;24.73;14.23;;;;;;;;;;5029779;28;20041;-67
2021/07/18 10:37:25;;;;;;;25.15;14.95;;;;;;;;;;5029405;28;20085;-68
2021/07/18 10:39:55;;;;;;;26.92;15.55;;;;;;;;;;5030955;28;20477;-67
2021/07/18 10:42:34;;;;;;;25.50;15.75;;;;;;;;;;5031072;28;20127;-69
2021/07/18 10:45:16;;;;;;;24.17;13.90;;;;;;;;;;5028720;28;20511;-67
2021/07/18 10:48:01;;;;;;;26.98;15.15;;;;;;;;;;5027241;28;20041;-67
2021/07/18 10:50:51;;;;;;;26.90;16.50;;;;;;;;;;5030114;28;20469;-67
2021/07/18 10:53:20;;;;;;;23.60;16.05;;;;;;;;;;5030871;28;20567;-67
2021/07/18 10:55:48;;;;;;;23.30;16.40;;;;;;;;;;5029780;28;20164;-67
2021/07/18 10:58:35;;;;;;;27.85;15.82;;;;;;;;;;5027044;28;20095;-68
2021/07/18 11:01:04;;;;;;;26.88;15.57;;;;;;;;;;5030005;28;20490;-67
2021/07/18 11:03:34;;;;;;;25.08;15.95;;;;;;;;;;5028670;28;20507;-68
2021/07/18 11:06:17;;;;;;;26.00;15.95;;;;;;;;;;5027262;28;20061;-67
2021/07/18 11:09:01;;;;;;;26.15;16.05;;;;;;;;;;5026216;28;20137;-67
2021/07/18 11:11:39;;;;;;;29.40;14.65;;;;;;;;;;5026288;28;20054;-67
2021/07/18 11:14:21;;;;;;;24.63;15.32;;;;;;;;;;5027666;28;20075;-67
2021/07/18 11:16:51;;;;;;;26.63;15.82;;;;;;;;;;5026287;28;20042;-67
2021/07/18 11:19:34;;;;;;;26.73;15.82;;;;;;;;;;5027235;28;20463;-67
2021/07/18 11:22:02;;;;;;;29.48;17.52;;;;;;;;;;5023376;28;20568;-68
2021/07/18 11:24:46;;;;;;;24.40;16.13;;;;;;;;;;5022165;28;20069;-68
2021/07/18 11:27:26;;;;;;;24.98;16.50;;;;;;;;;;5022852;28;20050;-68
2021/07/18 11:29:55;;;;;;;32.35;17.77;;;;;;;;;;5027158;28;20505;-67
2021/07/18 11:32:24;;;;;;;25.20;16.25;;;;;;;;;;5025283;28;20488;-68
2021/07/18 11:34:54;;;;;;;24.70;16.25;;;;;;;;;;5022328;28;20049;-67
2021/07/18 11:37:23;;;;;;;25.20;16.75;;;;;;;;;;5024714;28;20076;-67
2021/07/18 11:40:12;;;;;;;30.08;16.75;;;;;;;;;;5023566;28;20056;-67
2021/07/18 11:42:42;;;;;;;23.65;16.55;;;;;;;;;;5025334;28;20052;-67
2021/07/18 11:45:12;;;;;;;25.02;16.58;;;;;;;;;;5020475;28;20049;-67
2021/07/18 11:47:40;;;;;;;24.98;15.85;;;;;;;;;;5026202;28;20056;-67
2021/07/18 11:50:16;;;;;;;24.42;16.45;;;;;;;;;;5025945;28;20088;-66
2021/07/18 11:52:45;;;;;;;22.15;16.23;;;;;;;;;;5025713;28;20485;-67
2021/07/18 11:55:13;;;;;;;22.20;16.33;;;;;;;;;;5026336;28;20041;-66
2021/07/18 11:57:43;;;;;;;25.55;16.15;;;;;;;;;;5029847;28;20099;-66
2021/07/18 12:00:12;;;;;;;23.40;16.60;;;;;;;;;;5027747;28;20050;-67
2021/07/18 12:02:41;;;;;;;24.27;16.35;;;;;;;;;;5030307;28;20433;-67
2021/07/18 12:05:10;;;;;;;25.00;15.63;;;;;;;;;;5027557;28;20111;-67
2021/07/18 12:07:39;;;;;;;23.48;16.90;;;;;;;;;;5029261;28;20046;-67
2021/07/18 12:10:19;;;;;;;31.75;17.05;;;;;;;;;;5028637;28;20504;-67
2021/07/18 12:12:49;;;;;;;29.73;16.65;;;;;;;;;;5028836;28;20474;-67
2021/07/18 12:15:18;;;;;;;28.20;15.98;;;;;;;;;;5029309;28;20057;-67
2021/07/18 12:17:47;;;;;;;23.52;15.85;;;;;;;;;;5030124;28;20057;-67
2021/07/18 12:20:22;;;;;;;24.80;15.88;;;;;;;;;;5028595;28;20041;-67
2021/07/18 12:22:50;;;;;;;;;;;;;;;;;;5030605;28;20049;-67
2021/07/18 12:25:19;;;;;;;27.95;17.27;;;;;;;;;;5028258;28;19924;-68
2021/07/18 12:27:49;;;;;;;23.05;15.80;;;;;;;;;;5029497;28;20517;-67
2021/07/18 12:30:24;;;;;;;23.65;16.73;;;;;;;;;;5022271;28;20168;-67
2021/07/18 12:32:52;;;;;;;23.38;16.40;;;;;;;;;;5028742;28;20462;-67
2021/07/18 12:35:21;;;;;;;28.42;16.70;;;;;;;;;;5028490;28;20562;-67
2021/07/18 12:37:50;;;;;;;22.85;15.07;;;;;;;;;;5030206;28;20165;-67
2021/07/18 12:40:22;;;;;;;25.00;15.75;;;;;;;;;;5031984;28;20508;-67
2021/07/18 12:42:54;;;;;;;24.25;15.77;;;;;;;;;;5034171;28;20034;-66
2021/07/18 12:45:22;;;;;;;23.70;15.55;;;;;;;;;;5030307;28;20132;-66
2021/07/18 12:47:51;;;;;;;24.10;15.05;;;;;;;;;;5027481;28;20063;-67
2021/07/18 12:50:29;;;;;;;25.15;15.35;;;;;;;;;;5033895;28;20128;-66
2021/07/18 12:52:59;;;;;;;26.55;15.90;;;;;;;;;;5033640;28;20045;-67
2021/07/18 12:55:29;;;;;;;24.77;15.93;;;;;;;;;;5027072;28;20060;-67
2021/07/18 12:58:00;;;;;;;25.35;16.05;;;;;;;;;;5030869;28;20431;-66
2021/07/18 13:00:28;;;;;;;21.02;15.70;;;;;;;;;;5034050;28;20111;-66
2021/07/18 13:03:09;;;;;;;23.25;13.88;;;;;;;;;;5033300;28;20149;-66
2021/07/18 13:05:39;;;;;;;20.38;14.07;;;;;;;;;;5031385;28;20054;-66
2021/07/18 13:08:08;;;;;;;19.35;14.05;;;;;;;;;;5031772;28;20111;-66
2021/07/18 13:10:38;;;;;;;20.95;14.70;;;;;;;;;;5033604;28;20465;-66
2021/07/18 13:13:08;;;;;;;23.13;15.63;;;;;;;;;;5031637;28;20042;-66
2021/07/18 13:15:37;;;;;;;23.45;15.95;;;;;;;;;;5032872;28;20132;-65
2021/07/18 13:18:07;;;;;;;21.90;15.18;;;;;;;;;;5032690;28;20045;-65
2021/07/18 13:20:36;;;;;;;21.02;15.57;;;;;;;;;;5029349;28;20052;-65
2021/07/18 13:23:06;;;;;;;18.50;14.55;;;;;;;;;;5021512;28;20076;-66
2021/07/18 13:25:35;;;;;;;18.38;14.10;;;;;;;;;;5028852;28;20048;-66
2021/07/18 13:28:06;;;;;;;21.48;15.15;;;;;;;;;;5023975;28;20060;-65
2021/07/18 13:30:37;;;;;;;17.17;12.85;;;;;;;;;;5031195;28;20049;-65
2021/07/18 13:33:09;;;;;;;22.45;14.30;;;;;;;;;;5031140;28;20048;-66
2021/07/18 13:35:42;;;;;;;20.95;14.23;;;;;;;;;;5031109;28;20141;-66
2021/07/18 13:38:20;;;;;;;20.25;12.98;;;;;;;;;;5031852;28;20153;-66
2021/07/18 13:40:49;;;;;;;20.00;13.15;;;;;;;;;;5032227;28;20089;-66
2021/07/18 13:43:20;;;;;;;19.42;13.27;;;;;;;;;;5033607;28;20053;-66
2021/07/18 13:45:50;;;;;;;19.50;13.32;;;;;;;;;;5030500;28;20059;-67
2021/07/18 13:48:20;;;;;;;16.15;12.23;;;;;;;;;;5031945;28;20084;-67
2021/07/18 13:50:49;;;;;;;15.07;11.60;;;;;;;;;;5031911;28;20139;-66
2021/07/18 13:53:18;;;;;;;19.27;12.90;;;;;;;;;;5030341;28;20409;-67
2021/07/18 13:55:47;;;;;;;15.27;12.43;;;;;;;;;;5025501;28;20405;-66
2021/07/18 13:58:16;;;;;;;18.10;11.98;;;;;;;;;;5020158;28;20057;-68
2021/07/18 14:00:44;;;;;;;17.17;11.18;;;;;;;;;;5024150;28;20149;-67
2021/07/18 14:03:14;;;;;;;15.88;10.95;;;;;;;;;;5021599;28;20069;-67
2021/07/18 14:05:43;;;;;;;17.00;11.27;;;;;;;;;;5019903;28;20788;-67
2021/07/18 14:08:11;;;;;;;14.95;10.60;;;;;;;;;;5021665;28;20083;-67
2021/07/18 14:10:40;;;;;;;21.40;12.38;;;;;;;;;;5017646;28;20141;-67
2021/07/18 14:13:09;;;;;;;13.13;10.90;;;;;;;;;;5021415;28;20047;-67
2021/07/18 14:15:38;;;;;;;14.55;10.50;;;;;;;;;;5025156;28;20076;-67
2021/07/18 14:18:07;;;;;;;12.30;9.68;;;;;;;;;;5025880;28;20128;-67
2021/07/18 14:20:37;;;;;;;14.23;10.38;;;;;;;;;;5027215;28;20124;-67
2021/07/18 14:23:08;;;;;;;18.90;10.20;;;;;;;;;;5026652;28;20140;-67
2021/07/18 14:25:36;;;;;;;14.82;8.93;;;;;;;;;;5027434;28;20052;-67
2021/07/18 14:28:05;;;;;;;15.00;10.63;;;;;;;;;;5027208;28;20132;-67
2021/07/18 14:30:34;;;;;;;12.55;9.57;;;;;;;;;;5024432;28;20046;-67
2021/07/18 14:33:04;;;;;;;12.23;9.15;;;;;;;;;;5024252;28;20075;-69
2021/07/18 14:35:33;;;;;;;13.57;9.43;;;;;;;;;;5027023;28;20076;-67
2021/07/18 14:38:03;;;;;;;14.88;9.43;;;;;;;;;;5024086;28;20481;-67